Ana Sayfa
METAR-TAF:

METAR-TAF

Havaalanları :

Sandpoint Airport (Dave Wall Field)

Sandpoint, Idaho, Amerika Birleşik Devletleri

Enlem: 48-17-58N, Boylam: 116-33-36W, yükseklik: 648 m

Güncel hava durumu gözlemi

Rapor saat 10:35 UTC de 24 dakika önce yapıldı.
Rüzgar kuzeydoğudan 5 kt
Sıcaklık 2°C
Nem 100%
Basınç 1014 hPa
Görüş mesafesi: 16.1 km
2600 ft yükseklikte çok bulutlu
çisenti

METAR: KSZT 241035Z AUTO 05005KT 10SM DZ OVC026 02/02 A2994 RMK AO2

Saat: 02:59 (10:59 UTC)


TAF: eksik

4.000'den fazla havaalanı için hava durumu gözlemleri ve tahminleri (METAR ve TAF raporları).

Kullanılabilir istasyonlar harita üzerinde sarı ve kırmızı noktalarla gösterilir.

İstasyonun adını görmek için fareyi noktanın üzerinde gezdirin.

Sonrasında hava gözlem ve tahminlerini görmek için tıklayın.

Haritayı değiştirmek için: yaklaştırmak için siyah artı işaretli yeşil düğmeye ve uzaklaştırmak için de eksi işaretli düğmeye hızla tıklayın; bitişik haritalar için yeşil okları kullanın.


METAR-TAF: